sensor_id;sensor_type;location;lat;lon;timestamp;temperature;humidity
21298;DHT22;10808;48.010;11.326;2022-12-18T00:07:30;-2.20;99.90
21298;DHT22;10808;48.010;11.326;2022-12-18T00:10:39;-2.30;99.90
21298;DHT22;10808;48.010;11.326;2022-12-18T00:13:27;-2.30;99.90
21298;DHT22;10808;48.010;11.326;2022-12-18T00:16:20;-2.40;99.90
21298;DHT22;10808;48.010;11.326;2022-12-18T00:22:46;-2.40;99.90
21298;DHT22;10808;48.010;11.326;2022-12-18T00:28:49;-2.30;99.90
21298;DHT22;10808;48.010;11.326;2022-12-18T00:31:28;-2.30;99.90
21298;DHT22;10808;48.010;11.326;2022-12-18T00:34:23;-2.30;99.90
21298;DHT22;10808;48.010;11.326;2022-12-18T00:37:33;-2.30;99.90
21298;DHT22;10808;48.010;11.326;2022-12-18T00:50:27;-2.30;99.90
21298;DHT22;10808;48.010;11.326;2022-12-18T01:13:26;-2.00;99.90
21298;DHT22;10808;48.010;11.326;2022-12-18T01:19:38;-2.00;99.90
21298;DHT22;10808;48.010;11.326;2022-12-18T01:32:48;-2.00;99.90
21298;DHT22;10808;48.010;11.326;2022-12-18T01:35:46;-2.00;99.90
21298;DHT22;10808;48.010;11.326;2022-12-18T01:38:35;-2.10;99.90
21298;DHT22;10808;48.010;11.326;2022-12-18T02:02:14;-2.10;99.90
21298;DHT22;10808;48.010;11.326;2022-12-18T02:42:42;-2.50;99.90
21298;DHT22;10808;48.010;11.326;2022-12-18T02:45:50;-2.60;99.90
21298;DHT22;10808;48.010;11.326;2022-12-18T03:04:02;-2.60;99.90
21298;DHT22;10808;48.010;11.326;2022-12-18T03:31:17;-2.60;99.90
21298;DHT22;10808;48.010;11.326;2022-12-18T03:34:05;-2.70;99.90
21298;DHT22;10808;48.010;11.326;2022-12-18T03:57:08;-2.80;99.90
21298;DHT22;10808;48.010;11.326;2022-12-18T04:00:57;-2.80;99.90
21298;DHT22;10808;48.010;11.326;2022-12-18T04:08:18;-2.60;99.90
21298;DHT22;10808;48.010;11.326;2022-12-18T04:11:13;-2.70;99.90
21298;DHT22;10808;48.010;11.326;2022-12-18T04:14:14;-2.70;99.90
21298;DHT22;10808;48.010;11.326;2022-12-18T04:20:22;-2.60;99.90
21298;DHT22;10808;48.010;11.326;2022-12-18T04:26:41;-2.60;99.90
21298;DHT22;10808;48.010;11.326;2022-12-18T04:32:57;-2.50;99.90
21298;DHT22;10808;48.010;11.326;2022-12-18T04:35:27;-2.60;99.90
21298;DHT22;10808;48.010;11.326;2022-12-18T04:38:04;-2.60;99.90
21298;DHT22;10808;48.010;11.326;2022-12-18T04:40:42;-2.60;99.90
21298;DHT22;10808;48.010;11.326;2022-12-18T04:43:55;-2.60;99.90
21298;DHT22;10808;48.010;11.326;2022-12-18T04:47:15;-2.70;99.90
21298;DHT22;10808;48.010;11.326;2022-12-18T04:49:51;-2.70;99.90
21298;DHT22;10808;48.010;11.326;2022-12-18T04:52:17;-2.80;99.90
21298;DHT22;10808;48.010;11.326;2022-12-18T04:54:43;-2.70;99.90
21298;DHT22;10808;48.010;11.326;2022-12-18T04:57:09;-2.60;99.90
21298;DHT22;10808;48.010;11.326;2022-12-18T04:59:35;-2.60;99.90
21298;DHT22;10808;48.010;11.326;2022-12-18T05:02:10;-2.60;99.90
21298;DHT22;10808;48.010;11.326;2022-12-18T05:04:37;-2.70;99.90
21298;DHT22;10808;48.010;11.326;2022-12-18T05:07:03;-2.70;99.90
21298;DHT22;10808;48.010;11.326;2022-12-18T05:09:29;-2.70;99.90
21298;DHT22;10808;48.010;11.326;2022-12-18T05:11:55;-2.70;99.90
21298;DHT22;10808;48.010;11.326;2022-12-18T05:14:21;-2.60;99.90
21298;DHT22;10808;48.010;11.326;2022-12-18T05:16:47;-2.60;99.90
21298;DHT22;10808;48.010;11.326;2022-12-18T05:19:13;-2.60;99.90
21298;DHT22;10808;48.010;11.326;2022-12-18T05:21:40;-2.60;99.90
21298;DHT22;10808;48.010;11.326;2022-12-18T05:24:06;-2.60;99.90
21298;DHT22;10808;48.010;11.326;2022-12-18T05:26:32;-2.70;99.90
21298;DHT22;10808;48.010;11.326;2022-12-18T05:29:02;-2.70;99.90
21298;DHT22;10808;48.010;11.326;2022-12-18T05:31:28;-2.70;99.90
21298;DHT22;10808;48.010;11.326;2022-12-18T05:33:54;-2.70;99.90
21298;DHT22;10808;48.010;11.326;2022-12-18T05:36:24;-2.60;99.90
21298;DHT22;10808;48.010;11.326;2022-12-18T05:38:50;-2.60;99.90
21298;DHT22;10808;48.010;11.326;2022-12-18T05:41:16;-2.60;99.90
21298;DHT22;10808;48.010;11.326;2022-12-18T05:43:42;-2.50;99.90
21298;DHT22;10808;48.010;11.326;2022-12-18T05:46:12;-2.60;99.90
21298;DHT22;10808;48.010;11.326;2022-12-18T05:48:38;-2.60;99.90
21298;DHT22;10808;48.010;11.326;2022-12-18T05:51:07;-2.70;99.90
21298;DHT22;10808;48.010;11.326;2022-12-18T05:53:35;-2.70;99.90
21298;DHT22;10808;48.010;11.326;2022-12-18T05:56:03;-2.80;99.90
21298;DHT22;10808;48.010;11.326;2022-12-18T05:58:30;-2.80;99.90
21298;DHT22;10808;48.010;11.326;2022-12-18T06:00:57;-2.80;99.90
21298;DHT22;10808;48.010;11.326;2022-12-18T06:03:23;-2.80;99.90
21298;DHT22;10808;48.010;11.326;2022-12-18T06:05:50;-2.80;99.90
21298;DHT22;10808;48.010;11.326;2022-12-18T06:08:16;-2.80;99.90
21298;DHT22;10808;48.010;11.326;2022-12-18T06:10:42;-2.80;99.90
21298;DHT22;10808;48.010;11.326;2022-12-18T06:13:15;-2.80;99.90
21298;DHT22;10808;48.010;11.326;2022-12-18T06:15:41;-2.80;99.90
21298;DHT22;10808;48.010;11.326;2022-12-18T06:18:07;-2.80;99.90
21298;DHT22;10808;48.010;11.326;2022-12-18T06:20:33;-2.90;99.90
21298;DHT22;10808;48.010;11.326;2022-12-18T06:22:59;-2.80;99.90
21298;DHT22;10808;48.010;11.326;2022-12-18T06:25:25;-2.90;99.90
21298;DHT22;10808;48.010;11.326;2022-12-18T06:27:51;-2.90;99.90
21298;DHT22;10808;48.010;11.326;2022-12-18T06:30:17;-2.80;99.90
21298;DHT22;10808;48.010;11.326;2022-12-18T06:32:44;-2.80;99.90
21298;DHT22;10808;48.010;11.326;2022-12-18T06:35:10;-2.80;99.90
21298;DHT22;10808;48.010;11.326;2022-12-18T06:37:36;-2.80;99.90
21298;DHT22;10808;48.010;11.326;2022-12-18T06:40:02;-2.80;99.90
21298;DHT22;10808;48.010;11.326;2022-12-18T06:42:28;-2.80;99.90
21298;DHT22;10808;48.010;11.326;2022-12-18T06:44:54;-2.80;99.90
21298;DHT22;10808;48.010;11.326;2022-12-18T06:47:20;-2.90;99.90
21298;DHT22;10808;48.010;11.326;2022-12-18T06:49:47;-2.90;99.90
21298;DHT22;10808;48.010;11.326;2022-12-18T06:52:13;-2.90;99.90
21298;DHT22;10808;48.010;11.326;2022-12-18T06:54:42;-2.80;99.90
21298;DHT22;10808;48.010;11.326;2022-12-18T06:57:08;-2.80;99.90
21298;DHT22;10808;48.010;11.326;2022-12-18T06:59:34;-2.80;99.90
21298;DHT22;10808;48.010;11.326;2022-12-18T07:02:00;-2.80;99.90
21298;DHT22;10808;48.010;11.326;2022-12-18T07:04:30;-2.80;99.90
21298;DHT22;10808;48.010;11.326;2022-12-18T07:06:56;-2.80;99.90
21298;DHT22;10808;48.010;11.326;2022-12-18T07:09:23;-2.80;99.90
21298;DHT22;10808;48.010;11.326;2022-12-18T07:11:49;-2.70;99.90
21298;DHT22;10808;48.010;11.326;2022-12-18T07:14:15;-2.70;99.90
21298;DHT22;10808;48.010;11.326;2022-12-18T07:16:41;-2.70;99.90
21298;DHT22;10808;48.010;11.326;2022-12-18T07:19:07;-2.70;99.90
21298;DHT22;10808;48.010;11.326;2022-12-18T07:21:33;-2.70;99.90
21298;DHT22;10808;48.010;11.326;2022-12-18T07:24:00;-2.70;99.90
21298;DHT22;10808;48.010;11.326;2022-12-18T07:26:26;-2.70;99.90
21298;DHT22;10808;48.010;11.326;2022-12-18T07:28:55;-2.70;99.90
21298;DHT22;10808;48.010;11.326;2022-12-18T07:31:24;-2.70;99.90
21298;DHT22;10808;48.010;11.326;2022-12-18T07:33:51;-2.70;99.90
21298;DHT22;10808;48.010;11.326;2022-12-18T07:36:17;-2.70;99.90
21298;DHT22;10808;48.010;11.326;2022-12-18T07:38:47;-2.70;99.90
21298;DHT22;10808;48.010;11.326;2022-12-18T07:41:14;-2.70;99.90
21298;DHT22;10808;48.010;11.326;2022-12-18T07:43:41;-2.70;99.90
21298;DHT22;10808;48.010;11.326;2022-12-18T07:46:07;-2.70;99.90
21298;DHT22;10808;48.010;11.326;2022-12-18T07:48:34;-2.70;99.90
21298;DHT22;10808;48.010;11.326;2022-12-18T07:51:01;-2.70;99.90
21298;DHT22;10808;48.010;11.326;2022-12-18T07:53:28;-2.70;99.90
21298;DHT22;10808;48.010;11.326;2022-12-18T07:55:59;-2.60;99.90
21298;DHT22;10808;48.010;11.326;2022-12-18T07:58:26;-2.70;99.90
21298;DHT22;10808;48.010;11.326;2022-12-18T08:00:52;-2.70;99.90
21298;DHT22;10808;48.010;11.326;2022-12-18T08:03:18;-2.80;99.90
21298;DHT22;10808;48.010;11.326;2022-12-18T08:05:44;-2.80;99.90
21298;DHT22;10808;48.010;11.326;2022-12-18T08:08:11;-2.80;99.90
21298;DHT22;10808;48.010;11.326;2022-12-18T08:10:37;-2.70;99.90
21298;DHT22;10808;48.010;11.326;2022-12-18T08:13:04;-2.70;99.90
21298;DHT22;10808;48.010;11.326;2022-12-18T08:15:30;-2.70;99.90
21298;DHT22;10808;48.010;11.326;2022-12-18T08:17:57;-2.70;99.90
21298;DHT22;10808;48.010;11.326;2022-12-18T08:20:23;-2.60;99.90
21298;DHT22;10808;48.010;11.326;2022-12-18T08:22:49;-2.60;99.90
21298;DHT22;10808;48.010;11.326;2022-12-18T08:25:16;-2.50;99.90
21298;DHT22;10808;48.010;11.326;2022-12-18T08:27:42;-2.50;99.90
21298;DHT22;10808;48.010;11.326;2022-12-18T08:30:09;-2.40;99.90
21298;DHT22;10808;48.010;11.326;2022-12-18T08:32:35;-2.40;99.90
21298;DHT22;10808;48.010;11.326;2022-12-18T08:35:02;-2.40;99.90
21298;DHT22;10808;48.010;11.326;2022-12-18T08:37:28;-2.40;99.90
21298;DHT22;10808;48.010;11.326;2022-12-18T08:39:54;-2.30;99.90
21298;DHT22;10808;48.010;11.326;2022-12-18T08:42:20;-2.30;99.90
21298;DHT22;10808;48.010;11.326;2022-12-18T08:45:05;-2.30;99.90
21298;DHT22;10808;48.010;11.326;2022-12-18T08:47:31;-2.30;99.90
21298;DHT22;10808;48.010;11.326;2022-12-18T08:49:57;-2.30;99.90
21298;DHT22;10808;48.010;11.326;2022-12-18T08:52:23;-2.40;99.90
21298;DHT22;10808;48.010;11.326;2022-12-18T08:54:49;-2.30;99.90
21298;DHT22;10808;48.010;11.326;2022-12-18T08:57:15;-2.30;99.90
21298;DHT22;10808;48.010;11.326;2022-12-18T08:59:42;-2.20;99.90
21298;DHT22;10808;48.010;11.326;2022-12-18T09:02:10;-2.10;99.90
21298;DHT22;10808;48.010;11.326;2022-12-18T09:04:36;-2.10;99.90
21298;DHT22;10808;48.010;11.326;2022-12-18T09:07:02;-2.10;99.90
21298;DHT22;10808;48.010;11.326;2022-12-18T09:09:28;-2.10;99.90
21298;DHT22;10808;48.010;11.326;2022-12-18T09:11:54;-2.10;99.90
21298;DHT22;10808;48.010;11.326;2022-12-18T09:14:21;-2.20;99.90
21298;DHT22;10808;48.010;11.326;2022-12-18T09:16:47;-2.10;99.90
21298;DHT22;10808;48.010;11.326;2022-12-18T09:19:13;-2.10;99.90
21298;DHT22;10808;48.010;11.326;2022-12-18T09:21:39;-2.00;99.90
21298;DHT22;10808;48.010;11.326;2022-12-18T09:24:06;-2.00;99.90
21298;DHT22;10808;48.010;11.326;2022-12-18T09:26:32;-2.00;99.90
21298;DHT22;10808;48.010;11.326;2022-12-18T09:28:58;-2.00;99.90
21298;DHT22;10808;48.010;11.326;2022-12-18T09:31:24;-2.00;99.90
21298;DHT22;10808;48.010;11.326;2022-12-18T09:33:50;-1.90;99.90
21298;DHT22;10808;48.010;11.326;2022-12-18T09:36:17;-1.80;99.90
21298;DHT22;10808;48.010;11.326;2022-12-18T09:38:44;-1.80;99.90
21298;DHT22;10808;48.010;11.326;2022-12-18T09:41:42;-1.70;99.90
21298;DHT22;10808;48.010;11.326;2022-12-18T09:44:30;-1.60;99.90
21298;DHT22;10808;48.010;11.326;2022-12-18T09:47:37;-1.50;99.90
21298;DHT22;10808;48.010;11.326;2022-12-18T09:49:59;-1.60;99.90
21298;DHT22;10808;48.010;11.326;2022-12-18T09:52:39;-1.60;99.90
21298;DHT22;10808;48.010;11.326;2022-12-18T09:55:28;-1.70;99.90
21298;DHT22;10808;48.010;11.326;2022-12-18T09:58:00;-1.70;99.90
21298;DHT22;10808;48.010;11.326;2022-12-18T10:00:28;-1.60;99.90
21298;DHT22;10808;48.010;11.326;2022-12-18T10:03:00;-1.60;99.90
21298;DHT22;10808;48.010;11.326;2022-12-18T10:05:37;-1.60;99.90
21298;DHT22;10808;48.010;11.326;2022-12-18T10:08:12;-1.50;99.90
21298;DHT22;10808;48.010;11.326;2022-12-18T10:10:57;-1.50;99.90
21298;DHT22;10808;48.010;11.326;2022-12-18T10:13:42;-1.60;99.90
21298;DHT22;10808;48.010;11.326;2022-12-18T10:16:23;-1.50;99.90
21298;DHT22;10808;48.010;11.326;2022-12-18T10:27:30;-1.30;99.90
21298;DHT22;10808;48.010;11.326;2022-12-18T10:29:57;-1.20;99.90
21298;DHT22;10808;48.010;11.326;2022-12-18T10:32:29;-1.20;99.90
21298;DHT22;10808;48.010;11.326;2022-12-18T10:34:57;-1.30;99.90
21298;DHT22;10808;48.010;11.326;2022-12-18T10:37:26;-1.30;99.90
21298;DHT22;10808;48.010;11.326;2022-12-18T10:40:13;-1.30;99.90
21298;DHT22;10808;48.010;11.326;2022-12-18T10:42:40;-1.40;99.90
21298;DHT22;10808;48.010;11.326;2022-12-18T10:45:13;-1.30;99.90
21298;DHT22;10808;48.010;11.326;2022-12-18T10:47:48;-1.20;99.90
21298;DHT22;10808;48.010;11.326;2022-12-18T10:50:31;-1.00;99.90
21298;DHT22;10808;48.010;11.326;2022-12-18T10:52:59;-0.90;99.90
21298;DHT22;10808;48.010;11.326;2022-12-18T10:55:46;-0.80;99.90
21298;DHT22;10808;48.010;11.326;2022-12-18T10:58:26;-0.80;99.90
21298;DHT22;10808;48.010;11.326;2022-12-18T11:06:16;-0.80;99.90
21298;DHT22;10808;48.010;11.326;2022-12-18T11:08:45;-0.70;99.90
21298;DHT22;10808;48.010;11.326;2022-12-18T11:11:23;-0.70;99.90
21298;DHT22;10808;48.010;11.326;2022-12-18T11:14:19;-0.70;99.90
21298;DHT22;10808;48.010;11.326;2022-12-18T11:16:48;-0.70;99.90
21298;DHT22;10808;48.010;11.326;2022-12-18T11:21:59;-0.50;99.90
21298;DHT22;10808;48.010;11.326;2022-12-18T11:24:35;-0.40;99.90
21298;DHT22;10808;48.010;11.326;2022-12-18T11:27:04;-0.30;99.90
21298;DHT22;10808;48.010;11.326;2022-12-18T11:29:36;-0.20;99.90
21298;DHT22;10808;48.010;11.326;2022-12-18T11:34:49;-0.20;99.90
21298;DHT22;10808;48.010;11.326;2022-12-18T11:37:17;-0.20;99.90
21298;DHT22;10808;48.010;11.326;2022-12-18T11:39:51;-0.30;99.90
21298;DHT22;10808;48.010;11.326;2022-12-18T11:45:24;-0.40;99.90
21298;DHT22;10808;48.010;11.326;2022-12-18T11:48:18;-0.40;99.90
21298;DHT22;10808;48.010;11.326;2022-12-18T11:50:56;-0.50;99.90
21298;DHT22;10808;48.010;11.326;2022-12-18T11:53:24;-0.50;99.90
21298;DHT22;10808;48.010;11.326;2022-12-18T11:59:03;-0.30;99.90
21298;DHT22;10808;48.010;11.326;2022-12-18T12:07:17;-0.20;99.90
21298;DHT22;10808;48.010;11.326;2022-12-18T12:13:19;-0.20;99.90
21298;DHT22;10808;48.010;11.326;2022-12-18T12:27:36;-0.10;99.90
21298;DHT22;10808;48.010;11.326;2022-12-18T12:35:19;-0.20;99.90
21298;DHT22;10808;48.010;11.326;2022-12-18T12:40:36;-0.10;99.90
21298;DHT22;10808;48.010;11.326;2022-12-18T12:43:44;-0.10;99.90
21298;DHT22;10808;48.010;11.326;2022-12-18T12:46:15;-0.10;99.90
21298;DHT22;10808;48.010;11.326;2022-12-18T12:48:51;0.00;99.90
21298;DHT22;10808;48.010;11.326;2022-12-18T12:51:22;0.00;99.90
21298;DHT22;10808;48.010;11.326;2022-12-18T12:53:49;0.20;99.90
21298;DHT22;10808;48.010;11.326;2022-12-18T12:56:18;0.20;99.90
21298;DHT22;10808;48.010;11.326;2022-12-18T13:01:34;0.20;99.90
21298;DHT22;10808;48.010;11.326;2022-12-18T13:04:27;0.30;99.90
21298;DHT22;10808;48.010;11.326;2022-12-18T13:09:23;0.20;99.90
21298;DHT22;10808;48.010;11.326;2022-12-18T13:11:49;0.10;99.90
21298;DHT22;10808;48.010;11.326;2022-12-18T13:14:39;0.10;99.90
21298;DHT22;10808;48.010;11.326;2022-12-18T13:19:51;0.10;99.90
21298;DHT22;10808;48.010;11.326;2022-12-18T13:22:30;0.10;99.90
21298;DHT22;10808;48.010;11.326;2022-12-18T13:24:57;0.10;99.90
21298;DHT22;10808;48.010;11.326;2022-12-18T13:36:00;0.00;99.90
21298;DHT22;10808;48.010;11.326;2022-12-18T13:38:34;0.00;99.90
21298;DHT22;10808;48.010;11.326;2022-12-18T13:41:10;-0.20;99.90
21298;DHT22;10808;48.010;11.326;2022-12-18T13:43:52;-0.40;99.90
21298;DHT22;10808;48.010;11.326;2022-12-18T13:46:20;-0.50;99.90
21298;DHT22;10808;48.010;11.326;2022-12-18T13:51:20;-0.50;99.90
21298;DHT22;10808;48.010;11.326;2022-12-18T13:53:51;-0.50;99.90
21298;DHT22;10808;48.010;11.326;2022-12-18T13:56:20;-0.60;99.90
21298;DHT22;10808;48.010;11.326;2022-12-18T13:59:17;-0.60;99.90
21298;DHT22;10808;48.010;11.326;2022-12-18T14:01:55;-0.60;99.90
21298;DHT22;10808;48.010;11.326;2022-12-18T14:04:29;-0.70;99.90
21298;DHT22;10808;48.010;11.326;2022-12-18T14:09:27;-0.70;99.90
21298;DHT22;10808;48.010;11.326;2022-12-18T14:11:55;-0.80;99.90
21298;DHT22;10808;48.010;11.326;2022-12-18T14:14:44;-0.80;99.90
21298;DHT22;10808;48.010;11.326;2022-12-18T14:17:11;-0.90;99.90
21298;DHT22;10808;48.010;11.326;2022-12-18T14:19:42;-0.90;99.90
21298;DHT22;10808;48.010;11.326;2022-12-18T14:22:25;-1.00;99.90
21298;DHT22;10808;48.010;11.326;2022-12-18T14:27:45;-1.00;99.90
21298;DHT22;10808;48.010;11.326;2022-12-18T14:33:08;-0.90;99.90
21298;DHT22;10808;48.010;11.326;2022-12-18T14:35:38;-0.90;99.90
21298;DHT22;10808;48.010;11.326;2022-12-18T14:40:37;-1.00;99.90
21298;DHT22;10808;48.010;11.326;2022-12-18T14:43:03;-1.00;99.90
21298;DHT22;10808;48.010;11.326;2022-12-18T14:45:42;-0.90;99.90
21298;DHT22;10808;48.010;11.326;2022-12-18T14:48:21;-1.00;99.90
21298;DHT22;10808;48.010;11.326;2022-12-18T14:51:01;-1.10;99.90
21298;DHT22;10808;48.010;11.326;2022-12-18T14:53:38;-1.10;99.90
21298;DHT22;10808;48.010;11.326;2022-12-18T14:56:32;-1.20;99.90
21298;DHT22;10808;48.010;11.326;2022-12-18T15:01:33;-1.20;99.90
21298;DHT22;10808;48.010;11.326;2022-12-18T15:04:01;-1.30;99.90
21298;DHT22;10808;48.010;11.326;2022-12-18T15:06:36;-1.30;99.90
21298;DHT22;10808;48.010;11.326;2022-12-18T15:09:24;-1.30;99.90
21298;DHT22;10808;48.010;11.326;2022-12-18T15:11:57;-1.30;99.90
21298;DHT22;10808;48.010;11.326;2022-12-18T15:16:56;-1.30;99.90
21298;DHT22;10808;48.010;11.326;2022-12-18T15:19:34;-1.30;99.90
21298;DHT22;10808;48.010;11.326;2022-12-18T15:22:01;-1.40;99.90
21298;DHT22;10808;48.010;11.326;2022-12-18T15:24:31;-1.40;99.90
21298;DHT22;10808;48.010;11.326;2022-12-18T15:26:58;-1.50;99.90
21298;DHT22;10808;48.010;11.326;2022-12-18T15:29:25;-1.50;99.90
21298;DHT22;10808;48.010;11.326;2022-12-18T15:32:03;-1.50;99.90
21298;DHT22;10808;48.010;11.326;2022-12-18T15:34:30;-1.50;99.90
21298;DHT22;10808;48.010;11.326;2022-12-18T15:36:57;-1.50;99.90
21298;DHT22;10808;48.010;11.326;2022-12-18T15:39:23;-1.40;99.90
21298;DHT22;10808;48.010;11.326;2022-12-18T15:41:49;-1.40;99.90
21298;DHT22;10808;48.010;11.326;2022-12-18T15:44:34;-1.40;99.90
21298;DHT22;10808;48.010;11.326;2022-12-18T15:47:11;-1.40;99.90
21298;DHT22;10808;48.010;11.326;2022-12-18T15:49:38;-1.50;99.90
21298;DHT22;10808;48.010;11.326;2022-12-18T15:52:05;-1.50;99.90
21298;DHT22;10808;48.010;11.326;2022-12-18T15:54:31;-1.50;99.90
21298;DHT22;10808;48.010;11.326;2022-12-18T15:57:16;-1.50;99.90
21298;DHT22;10808;48.010;11.326;2022-12-18T15:59:53;-1.60;99.90
21298;DHT22;10808;48.010;11.326;2022-12-18T16:02:20;-1.60;99.90
21298;DHT22;10808;48.010;11.326;2022-12-18T16:04:49;-1.60;99.90
21298;DHT22;10808;48.010;11.326;2022-12-18T16:07:15;-1.60;99.90
21298;DHT22;10808;48.010;11.326;2022-12-18T16:09:41;-1.70;99.90
21298;DHT22;10808;48.010;11.326;2022-12-18T16:12:34;-1.70;99.90
21298;DHT22;10808;48.010;11.326;2022-12-18T16:15:00;-1.70;99.90
21298;DHT22;10808;48.010;11.326;2022-12-18T16:17:26;-1.80;99.90
21298;DHT22;10808;48.010;11.326;2022-12-18T16:19:52;-1.80;99.90
21298;DHT22;10808;48.010;11.326;2022-12-18T16:22:27;-1.80;99.90
21298;DHT22;10808;48.010;11.326;2022-12-18T16:24:54;-1.80;99.90
21298;DHT22;10808;48.010;11.326;2022-12-18T16:27:22;-1.90;99.90
21298;DHT22;10808;48.010;11.326;2022-12-18T16:29:49;-1.90;99.90
21298;DHT22;10808;48.010;11.326;2022-12-18T16:32:17;-1.90;99.90
21298;DHT22;10808;48.010;11.326;2022-12-18T16:34:44;-1.90;99.90
21298;DHT22;10808;48.010;11.326;2022-12-18T16:37:12;-1.80;99.90
21298;DHT22;10808;48.010;11.326;2022-12-18T16:39:39;-1.80;99.90
21298;DHT22;10808;48.010;11.326;2022-12-18T16:42:14;-1.80;99.90
21298;DHT22;10808;48.010;11.326;2022-12-18T16:44:42;-1.80;99.90
21298;DHT22;10808;48.010;11.326;2022-12-18T16:47:09;-1.80;99.90
21298;DHT22;10808;48.010;11.326;2022-12-18T16:49:35;-1.80;99.90
21298;DHT22;10808;48.010;11.326;2022-12-18T16:52:01;-1.80;99.90
21298;DHT22;10808;48.010;11.326;2022-12-18T16:54:27;-1.80;99.90
21298;DHT22;10808;48.010;11.326;2022-12-18T16:56:55;-1.80;99.90
21298;DHT22;10808;48.010;11.326;2022-12-18T16:59:21;-1.80;99.90
21298;DHT22;10808;48.010;11.326;2022-12-18T17:01:47;-1.80;99.90
21298;DHT22;10808;48.010;11.326;2022-12-18T17:04:14;-1.80;99.90
21298;DHT22;10808;48.010;11.326;2022-12-18T17:06:43;-1.70;99.90
21298;DHT22;10808;48.010;11.326;2022-12-18T17:09:12;-1.80;99.90
21298;DHT22;10808;48.010;11.326;2022-12-18T17:11:42;-1.80;99.90
21298;DHT22;10808;48.010;11.326;2022-12-18T17:14:19;-1.70;99.90
21298;DHT22;10808;48.010;11.326;2022-12-18T17:16:46;-1.70;99.90
21298;DHT22;10808;48.010;11.326;2022-12-18T17:19:13;-1.80;99.90
21298;DHT22;10808;48.010;11.326;2022-12-18T17:21:39;-1.80;99.90
21298;DHT22;10808;48.010;11.326;2022-12-18T17:24:06;-1.80;99.90
21298;DHT22;10808;48.010;11.326;2022-12-18T17:26:32;-1.80;99.90
21298;DHT22;10808;48.010;11.326;2022-12-18T17:28:58;-1.90;99.90
21298;DHT22;10808;48.010;11.326;2022-12-18T17:31:27;-1.80;99.90
21298;DHT22;10808;48.010;11.326;2022-12-18T17:33:54;-1.90;99.90
21298;DHT22;10808;48.010;11.326;2022-12-18T17:36:21;-1.90;99.90
21298;DHT22;10808;48.010;11.326;2022-12-18T17:38:54;-1.90;99.90
21298;DHT22;10808;48.010;11.326;2022-12-18T17:41:22;-1.90;99.90
21298;DHT22;10808;48.010;11.326;2022-12-18T17:43:52;-1.90;99.90
21298;DHT22;10808;48.010;11.326;2022-12-18T17:46:18;-1.90;99.90
21298;DHT22;10808;48.010;11.326;2022-12-18T17:48:44;-1.90;99.90
21298;DHT22;10808;48.010;11.326;2022-12-18T17:51:11;-2.00;99.90
21298;DHT22;10808;48.010;11.326;2022-12-18T17:53:38;-2.00;99.90
21298;DHT22;10808;48.010;11.326;2022-12-18T17:56:04;-2.00;99.90
21298;DHT22;10808;48.010;11.326;2022-12-18T17:58:33;-2.00;99.90
21298;DHT22;10808;48.010;11.326;2022-12-18T18:01:01;-2.00;99.90
21298;DHT22;10808;48.010;11.326;2022-12-18T18:03:30;-2.00;99.90
21298;DHT22;10808;48.010;11.326;2022-12-18T18:05:59;-2.00;99.90
21298;DHT22;10808;48.010;11.326;2022-12-18T18:08:26;-2.00;99.90
21298;DHT22;10808;48.010;11.326;2022-12-18T18:10:52;-2.00;99.90
21298;DHT22;10808;48.010;11.326;2022-12-18T18:13:21;-2.00;99.90
21298;DHT22;10808;48.010;11.326;2022-12-18T18:16:07;-2.10;99.90
21298;DHT22;10808;48.010;11.326;2022-12-18T18:18:33;-2.20;99.90
21298;DHT22;10808;48.010;11.326;2022-12-18T18:21:07;-2.20;99.90
21298;DHT22;10808;48.010;11.326;2022-12-18T18:23:34;-2.30;99.90
21298;DHT22;10808;48.010;11.326;2022-12-18T18:26:04;-2.30;99.90
21298;DHT22;10808;48.010;11.326;2022-12-18T18:28:30;-2.40;99.90
21298;DHT22;10808;48.010;11.326;2022-12-18T18:30:57;-2.50;99.90
21298;DHT22;10808;48.010;11.326;2022-12-18T18:33:23;-2.50;99.90
21298;DHT22;10808;48.010;11.326;2022-12-18T18:35:49;-2.60;99.90
21298;DHT22;10808;48.010;11.326;2022-12-18T18:38:15;-2.70;99.90
21298;DHT22;10808;48.010;11.326;2022-12-18T18:40:41;-2.70;99.90
21298;DHT22;10808;48.010;11.326;2022-12-18T18:43:07;-2.70;99.90
21298;DHT22;10808;48.010;11.326;2022-12-18T18:45:34;-2.80;99.90
21298;DHT22;10808;48.010;11.326;2022-12-18T18:48:00;-2.90;99.90
21298;DHT22;10808;48.010;11.326;2022-12-18T18:50:26;-2.90;99.90
21298;DHT22;10808;48.010;11.326;2022-12-18T18:52:52;-2.90;99.90
21298;DHT22;10808;48.010;11.326;2022-12-18T18:55:18;-2.90;99.90
21298;DHT22;10808;48.010;11.326;2022-12-18T18:57:44;-2.90;99.90
21298;DHT22;10808;48.010;11.326;2022-12-18T19:00:11;-2.90;99.90
21298;DHT22;10808;48.010;11.326;2022-12-18T19:02:37;-2.80;99.90
21298;DHT22;10808;48.010;11.326;2022-12-18T19:05:04;-2.80;99.90
21298;DHT22;10808;48.010;11.326;2022-12-18T19:07:30;-2.70;99.90
21298;DHT22;10808;48.010;11.326;2022-12-18T19:09:57;-2.70;99.90
21298;DHT22;10808;48.010;11.326;2022-12-18T19:12:23;-2.70;99.90
21298;DHT22;10808;48.010;11.326;2022-12-18T19:15:08;-2.70;99.90
21298;DHT22;10808;48.010;11.326;2022-12-18T19:17:34;-2.60;99.90
21298;DHT22;10808;48.010;11.326;2022-12-18T19:20:03;-2.60;99.90
21298;DHT22;10808;48.010;11.326;2022-12-18T19:22:29;-2.60;99.90
21298;DHT22;10808;48.010;11.326;2022-12-18T19:24:55;-2.50;99.90
21298;DHT22;10808;48.010;11.326;2022-12-18T19:27:21;-2.60;99.90
21298;DHT22;10808;48.010;11.326;2022-12-18T19:29:48;-2.60;99.90
21298;DHT22;10808;48.010;11.326;2022-12-18T19:32:15;-2.50;99.90
21298;DHT22;10808;48.010;11.326;2022-12-18T19:34:41;-2.50;99.90
21298;DHT22;10808;48.010;11.326;2022-12-18T19:37:07;-2.50;99.90
21298;DHT22;10808;48.010;11.326;2022-12-18T19:39:34;-2.50;99.90
21298;DHT22;10808;48.010;11.326;2022-12-18T19:42:00;-2.50;99.90
21298;DHT22;10808;48.010;11.326;2022-12-18T19:44:26;-2.50;99.90
21298;DHT22;10808;48.010;11.326;2022-12-18T19:46:52;-2.60;99.90
21298;DHT22;10808;48.010;11.326;2022-12-18T19:49:18;-2.60;99.90
21298;DHT22;10808;48.010;11.326;2022-12-18T19:51:44;-2.60;99.90
21298;DHT22;10808;48.010;11.326;2022-12-18T19:54:10;-2.60;99.90
21298;DHT22;10808;48.010;11.326;2022-12-18T19:56:36;-2.60;99.90
21298;DHT22;10808;48.010;11.326;2022-12-18T19:59:03;-2.50;99.90
21298;DHT22;10808;48.010;11.326;2022-12-18T20:01:30;-2.50;99.90
21298;DHT22;10808;48.010;11.326;2022-12-18T20:03:56;-2.60;99.90
21298;DHT22;10808;48.010;11.326;2022-12-18T20:06:31;-2.60;99.90
21298;DHT22;10808;48.010;11.326;2022-12-18T20:09:03;-2.50;99.90
21298;DHT22;10808;48.010;11.326;2022-12-18T20:11:33;-2.50;99.90
21298;DHT22;10808;48.010;11.326;2022-12-18T20:14:00;-2.50;99.90
21298;DHT22;10808;48.010;11.326;2022-12-18T20:16:26;-2.50;99.90
21298;DHT22;10808;48.010;11.326;2022-12-18T20:18:52;-2.60;99.90
21298;DHT22;10808;48.010;11.326;2022-12-18T20:21:20;-2.50;99.90
21298;DHT22;10808;48.010;11.326;2022-12-18T20:23:46;-2.50;99.90
21298;DHT22;10808;48.010;11.326;2022-12-18T20:26:12;-2.50;99.90